createdAt,value
2019-04-29T00:01:00.231Z,5.80
2019-04-29T00:04:23.824Z,5.80
2019-04-29T00:07:46.869Z,5.80
2019-04-29T00:11:10.141Z,5.80
2019-04-29T00:14:34.544Z,5.80
2019-04-29T00:18:02.561Z,5.80
2019-04-29T00:21:25.879Z,5.70
2019-04-29T00:24:48.957Z,5.70
2019-04-29T00:28:12.153Z,5.60
2019-04-29T00:31:35.300Z,5.60
2019-04-29T00:34:58.843Z,5.50
2019-04-29T00:38:42.490Z,5.40
2019-04-29T00:42:22.273Z,5.40
2019-04-29T00:45:45.527Z,5.30
2019-04-29T00:49:09.032Z,5.40
2019-04-29T00:52:32.584Z,5.30
2019-04-29T00:55:55.883Z,5.30
2019-04-29T00:59:19.169Z,5.20
2019-04-29T01:02:42.384Z,5.20
2019-04-29T01:06:05.344Z,5.10
2019-04-29T01:09:28.793Z,5.10
2019-04-29T01:12:51.854Z,5.10
2019-04-29T01:16:14.915Z,5.10
2019-04-29T01:19:37.987Z,5.10
2019-04-29T01:23:01.025Z,5.10
2019-04-29T01:26:43.667Z,5.00
2019-04-29T01:30:08.492Z,5.00
2019-04-29T01:33:31.523Z,4.90
2019-04-29T01:36:54.614Z,4.80
2019-04-29T01:40:37.254Z,4.80
2019-04-29T01:44:02.984Z,4.80
2019-04-29T01:47:27.227Z,4.80
2019-04-29T01:50:50.250Z,4.80
2019-04-29T01:54:13.659Z,4.80
2019-04-29T01:57:36.733Z,4.70
2019-04-29T02:00:59.773Z,4.70
2019-04-29T02:04:22.843Z,4.60
2019-04-29T02:07:45.960Z,4.60
2019-04-29T02:11:08.993Z,4.60
2019-04-29T02:14:32.019Z,4.60
2019-04-29T02:17:55.247Z,4.60
2019-04-29T02:21:18.280Z,4.60
2019-04-29T02:24:45.060Z,4.60
2019-04-29T02:28:08.201Z,4.60
2019-04-29T02:31:37.528Z,4.60
2019-04-29T02:35:00.695Z,4.50
2019-04-29T02:38:39.212Z,4.50
2019-04-29T02:42:25.355Z,4.40
2019-04-29T02:45:48.419Z,4.40
2019-04-29T02:49:11.423Z,4.40
2019-04-29T02:52:34.640Z,4.30
2019-04-29T02:55:59.840Z,4.40
2019-04-29T02:59:28.787Z,4.40
2019-04-29T03:02:59.008Z,4.40
2019-04-29T03:06:21.983Z,4.30
2019-04-29T03:09:45.175Z,4.30
2019-04-29T03:13:08.156Z,4.20
2019-04-29T03:16:31.166Z,4.20
2019-04-29T03:20:13.641Z,4.10
2019-04-29T03:23:36.732Z,4.10
2019-04-29T03:26:59.967Z,4.10
2019-04-29T03:30:22.975Z,4.10
2019-04-29T03:33:46.072Z,4.10
2019-04-29T03:37:09.115Z,4.10
2019-04-29T03:40:32.635Z,4.10
2019-04-29T03:43:55.694Z,4.10
2019-04-29T03:47:19.253Z,4.10
2019-04-29T03:50:42.877Z,4.10
2019-04-29T03:54:08.811Z,4.10
2019-04-29T03:57:35.594Z,4.10
2019-04-29T04:01:06.753Z,4.10
2019-04-29T04:04:48.038Z,4.10
2019-04-29T04:08:33.490Z,4.10
2019-04-29T04:11:56.711Z,4.10
2019-04-29T04:15:19.861Z,4.10
2019-04-29T04:18:43.618Z,4.20
2019-04-29T04:22:06.739Z,4.30
2019-04-29T04:25:29.742Z,4.40
2019-04-29T04:28:52.739Z,4.50
2019-04-29T04:32:15.731Z,4.50
2019-04-29T04:35:38.806Z,4.60
2019-04-29T04:39:02.338Z,4.70
2019-04-29T04:42:29.908Z,4.80
2019-04-29T04:45:52.525Z,5.00
2019-04-29T04:49:16.021Z,5.10
2019-04-29T04:52:39.353Z,5.30
2019-04-29T04:56:02.411Z,5.40
2019-04-29T04:59:25.415Z,5.50
2019-04-29T05:02:48.377Z,5.50
2019-04-29T05:06:11.371Z,5.50
2019-04-29T05:09:34.718Z,5.40
2019-04-29T05:12:57.806Z,5.40
2019-04-29T05:16:21.039Z,5.40
2019-04-29T05:19:44.542Z,5.40
2019-04-29T05:23:07.667Z,5.40
2019-04-29T05:26:30.801Z,5.40
2019-04-29T05:29:54.110Z,5.50
2019-04-29T05:33:18.353Z,5.50
2019-04-29T05:36:49.113Z,5.60
2019-04-29T05:40:32.970Z,5.60
2019-04-29T05:44:18.815Z,5.70
2019-04-29T05:47:43.584Z,5.80
2019-04-29T05:51:27.300Z,5.90
2019-04-29T05:54:51.471Z,6.00
2019-04-29T05:58:14.490Z,6.20
2019-04-29T06:01:37.480Z,6.30
2019-04-29T06:05:00.563Z,6.50
2019-04-29T06:08:23.679Z,6.60
2019-04-29T06:11:47.069Z,6.80
2019-04-29T06:15:10.158Z,6.90
2019-04-29T06:18:33.192Z,6.90
2019-04-29T06:21:56.579Z,7.00
2019-04-29T06:25:19.698Z,7.10
2019-04-29T06:28:42.714Z,7.20
2019-04-29T06:32:06.079Z,7.30
2019-04-29T06:35:29.152Z,7.40
2019-04-29T06:38:52.156Z,7.50
2019-04-29T06:42:15.463Z,7.60
2019-04-29T06:45:40.133Z,7.70
2019-04-29T06:49:10.044Z,7.70
2019-04-29T06:52:28.226Z,7.80
2019-04-29T06:55:51.331Z,7.90
2019-04-29T06:59:14.434Z,7.90
2019-04-29T07:02:38.000Z,8.00
2019-04-29T07:06:01.051Z,8.10
2019-04-29T07:09:25.444Z,8.20
2019-04-29T07:12:48.586Z,8.40
2019-04-29T07:16:11.895Z,8.50
2019-04-29T07:19:34.904Z,8.70
2019-04-29T07:23:00.743Z,8.80
2019-04-29T07:26:23.006Z,9.00
2019-04-29T07:29:46.039Z,9.10
2019-04-29T07:33:09.424Z,9.20
2019-04-29T07:36:32.450Z,9.30
2019-04-29T07:39:55.635Z,9.50
2019-04-29T07:43:18.780Z,9.60
2019-04-29T07:47:02.327Z,9.80
2019-04-29T07:50:26.798Z,10.00
2019-04-29T07:53:49.898Z,10.20
2019-04-29T07:57:16.437Z,10.40
2019-04-29T08:00:39.062Z,10.50
2019-04-29T08:04:02.225Z,10.60
2019-04-29T08:07:25.499Z,10.70
2019-04-29T08:10:56.123Z,10.80
2019-04-29T08:14:13.994Z,11.00
2019-04-29T08:17:37.091Z,11.10
2019-04-29T08:21:00.213Z,11.30
2019-04-29T08:24:23.336Z,11.50
2019-04-29T08:27:46.745Z,11.70
2019-04-29T08:31:09.848Z,11.80
2019-04-29T08:34:32.847Z,12.00
2019-04-29T08:37:55.921Z,12.10
2019-04-29T08:41:21.541Z,12.40
2019-04-29T08:45:06.998Z,12.80
2019-04-29T08:48:30.164Z,13.40
2019-04-29T08:51:53.429Z,13.90
2019-04-29T08:55:19.327Z,14.30
2019-04-29T08:58:44.093Z,14.60
2019-04-29T09:02:10.157Z,14.80
2019-04-29T09:05:31.825Z,15.10
2019-04-29T09:08:59.406Z,15.30
2019-04-29T09:12:24.194Z,15.50
2019-04-29T09:15:45.406Z,15.50
2019-04-29T09:19:08.540Z,15.70
2019-04-29T09:22:33.516Z,15.90
2019-04-29T09:26:28.314Z,16.10
2019-04-29T09:29:54.242Z,16.30
2019-04-29T09:33:16.790Z,16.30
2019-04-29T09:36:43.842Z,16.20
2019-04-29T09:40:05.363Z,16.20
2019-04-29T09:43:40.321Z,16.50
2019-04-29T09:47:08.590Z,17.00
2019-04-29T09:50:34.294Z,17.50
2019-04-29T09:53:54.833Z,17.60
2019-04-29T09:57:18.356Z,17.60
2019-04-29T10:00:48.918Z,18.40
2019-04-29T10:04:30.500Z,19.90
2019-04-29T10:07:53.695Z,21.30
2019-04-29T10:11:16.815Z,22.40
2019-04-29T10:14:39.955Z,23.70
2019-04-29T10:18:10.395Z,24.60
2019-04-29T10:21:33.473Z,25.00
2019-04-29T10:24:58.422Z,25.90
2019-04-29T10:28:21.649Z,27.00
2019-04-29T10:31:45.066Z,27.20
2019-04-29T10:35:10.454Z,27.80
2019-04-29T10:38:33.580Z,28.40
2019-04-29T10:41:58.743Z,28.20
2019-04-29T10:45:36.655Z,28.10
2019-04-29T10:49:08.284Z,27.50
2019-04-29T10:52:34.572Z,27.30
2019-04-29T10:55:56.541Z,25.70
2019-04-29T10:59:19.948Z,23.90
2019-04-29T11:02:44.815Z,24.60
2019-04-29T11:06:08.533Z,26.30
2019-04-29T11:09:46.400Z,25.00
2019-04-29T11:13:10.442Z,23.60
2019-04-29T11:16:46.173Z,22.40
2019-04-29T11:19:58.708Z,23.40
2019-04-29T11:23:45.177Z,26.50
2019-04-29T11:27:18.571Z,27.40
2019-04-29T11:30:42.219Z,25.30
2019-04-29T11:34:28.186Z,23.40
2019-04-29T11:37:55.414Z,24.90
2019-04-29T11:41:19.783Z,28.30
2019-04-29T11:44:41.805Z,29.60
2019-04-29T11:48:05.351Z,28.10
2019-04-29T11:51:49.345Z,27.20
2019-04-29T11:55:03.303Z,28.90
2019-04-29T11:58:41.774Z,31.10
2019-04-29T12:02:44.189Z,31.20
2019-04-29T12:06:00.947Z,27.70
2019-04-29T12:09:25.382Z,26.60
2019-04-29T12:12:49.895Z,29.40
2019-04-29T12:16:34.273Z,30.40
2019-04-29T12:20:01.408Z,28.70
2019-04-29T12:23:24.582Z,26.70
2019-04-29T12:26:47.689Z,25.50
2019-04-29T12:30:13.445Z,25.10
2019-04-29T12:33:42.808Z,25.50
2019-04-29T12:37:15.788Z,27.30
2019-04-29T12:40:57.482Z,27.60
2019-04-29T12:44:35.455Z,26.20
2019-04-29T12:47:59.067Z,24.60
2019-04-29T12:51:22.345Z,23.70
2019-04-29T12:54:46.135Z,25.50
2019-04-29T12:58:10.938Z,27.60
2019-04-29T13:01:58.794Z,28.10
2019-04-29T13:05:57.273Z,27.10
2019-04-29T13:09:17.986Z,28.70
2019-04-29T13:12:44.463Z,31.90
2019-04-29T13:16:31.618Z,33.00
2019-04-29T13:20:07.410Z,30.80
2019-04-29T13:23:34.798Z,29.30
2019-04-29T13:26:54.614Z,31.10
2019-04-29T13:30:18.540Z,33.30
2019-04-29T13:33:41.742Z,34.40
2019-04-29T13:37:07.732Z,34.50
2019-04-29T13:40:32.951Z,33.90
2019-04-29T13:44:03.965Z,33.80
2019-04-29T13:47:50.654Z,35.10
2019-04-29T13:51:34.548Z,35.50
2019-04-29T13:54:44.250Z,34.40
2019-04-29T13:58:07.305Z,31.20
2019-04-29T14:01:57.854Z,31.50
2019-04-29T14:05:05.241Z,32.00
2019-04-29T14:08:30.543Z,33.90
2019-04-29T14:12:01.694Z,35.80
2019-04-29T14:15:20.636Z,32.80
2019-04-29T14:18:48.050Z,30.30
2019-04-29T14:22:21.513Z,29.30
2019-04-29T14:25:34.129Z,29.60
2019-04-29T14:28:57.901Z,29.60
2019-04-29T14:32:33.279Z,28.40
2019-04-29T14:35:55.563Z,26.90
2019-04-29T14:39:36.256Z,25.80
2019-04-29T14:43:28.883Z,25.20
2019-04-29T14:46:56.917Z,25.30
2019-04-29T14:50:20.812Z,25.20
2019-04-29T14:53:55.618Z,24.40
2019-04-29T14:57:09.411Z,23.70
2019-04-29T15:01:01.695Z,23.20
2019-04-29T15:04:28.117Z,22.80
2019-04-29T15:07:51.196Z,22.60
2019-04-29T15:11:14.497Z,22.50
2019-04-29T15:14:47.966Z,22.10
2019-04-29T15:18:23.807Z,21.70
2019-04-29T15:21:48.554Z,21.40
2019-04-29T15:25:11.850Z,21.20
2019-04-29T15:28:50.006Z,20.80
2019-04-29T15:32:13.520Z,20.60
2019-04-29T15:35:37.674Z,20.30
2019-04-29T15:39:09.677Z,20.10
2019-04-29T15:42:27.657Z,20.10
2019-04-29T15:45:50.770Z,20.10
2019-04-29T15:49:15.297Z,19.90
2019-04-29T15:52:39.389Z,20.00
2019-04-29T15:56:07.128Z,19.70
2019-04-29T15:59:27.635Z,19.40
2019-04-29T16:02:50.860Z,19.00
2019-04-29T16:06:39.995Z,18.80
2019-04-29T16:10:27.318Z,18.60
2019-04-29T16:14:08.265Z,18.60
2019-04-29T16:17:20.517Z,18.30
2019-04-29T16:20:41.225Z,18.30
2019-04-29T16:24:24.941Z,18.10
2019-04-29T16:27:29.658Z,18.00
2019-04-29T16:30:52.801Z,17.90
2019-04-29T16:34:16.999Z,17.80
2019-04-29T16:37:40.016Z,17.60
2019-04-29T16:41:24.622Z,17.50
2019-04-29T16:44:48.158Z,17.50
2019-04-29T16:48:11.550Z,17.40
2019-04-29T16:51:34.801Z,17.50
2019-04-29T16:55:04.146Z,17.40
2019-04-29T16:58:24.566Z,17.40
2019-04-29T17:01:47.636Z,17.30
2019-04-29T17:05:10.879Z,17.30
2019-04-29T17:09:02.930Z,17.30
2019-04-29T17:12:18.372Z,17.10
2019-04-29T17:15:44.460Z,16.90
2019-04-29T17:19:07.041Z,16.80
2019-04-29T17:22:30.027Z,16.70
2019-04-29T17:25:53.017Z,16.50
2019-04-29T17:29:55.451Z,16.50
2019-04-29T17:33:49.717Z,16.40
2019-04-29T17:37:11.423Z,16.30
2019-04-29T17:40:34.608Z,16.20
2019-04-29T17:44:18.622Z,15.90
2019-04-29T17:47:56.709Z,15.80
2019-04-29T17:51:20.335Z,15.70
2019-04-29T17:54:45.387Z,15.60
2019-04-29T17:58:13.142Z,15.50
2019-04-29T18:02:02.911Z,15.50
2019-04-29T18:05:57.064Z,15.40
2019-04-29T18:09:36.927Z,15.30
2019-04-29T18:12:59.952Z,15.20
2019-04-29T18:16:29.107Z,15.00
2019-04-29T18:20:13.626Z,14.90
2019-04-29T18:23:59.448Z,14.80
2019-04-29T18:27:25.309Z,14.80
2019-04-29T18:30:49.762Z,14.80
2019-04-29T18:34:15.289Z,14.70
2019-04-29T18:37:41.499Z,14.70
2019-04-29T18:41:04.582Z,14.70
2019-04-29T18:44:27.829Z,14.60
2019-04-29T18:47:55.435Z,14.60
2019-04-29T18:51:25.679Z,14.60
2019-04-29T18:54:49.189Z,14.50
2019-04-29T18:58:16.008Z,14.50
2019-04-29T19:01:39.386Z,14.40
2019-04-29T19:05:12.402Z,14.30
2019-04-29T19:08:38.953Z,14.30
2019-04-29T19:12:02.148Z,14.20
2019-04-29T19:15:28.633Z,14.20
2019-04-29T19:18:56.518Z,14.10
2019-04-29T19:22:17.695Z,14.00
2019-04-29T19:25:46.468Z,14.00
2019-04-29T19:29:12.339Z,13.90
2019-04-29T19:32:36.644Z,13.90
2019-04-29T19:36:00.366Z,13.90
2019-04-29T19:39:25.493Z,13.90
2019-04-29T19:42:49.784Z,13.80
2019-04-29T19:46:22.672Z,13.70
2019-04-29T19:49:44.290Z,13.70
2019-04-29T19:53:08.718Z,13.60
2019-04-29T19:56:36.256Z,13.60
2019-04-29T20:00:07.017Z,13.50
2019-04-29T20:03:37.656Z,13.50
2019-04-29T20:07:06.084Z,13.50
2019-04-29T20:10:29.059Z,13.50
2019-04-29T20:14:05.843Z,13.50
2019-04-29T20:17:39.006Z,13.50
2019-04-29T20:23:27.698Z,13.40
2019-04-29T20:24:32.343Z,13.30
2019-04-29T20:28:05.447Z,13.30
2019-04-29T20:31:22.490Z,13.20
2019-04-29T20:34:46.455Z,13.20
2019-04-29T20:38:09.913Z,13.20
2019-04-29T20:41:40.642Z,13.20
2019-04-29T20:45:00.373Z,13.10
2019-04-29T20:48:24.352Z,13.20
2019-04-29T20:51:52.312Z,13.10
2019-04-29T20:55:15.800Z,13.00
2019-04-29T20:58:39.206Z,12.90
2019-04-29T21:02:12.448Z,12.80
2019-04-29T21:05:46.697Z,12.80
2019-04-29T21:08:58.418Z,12.70
2019-04-29T21:12:46.269Z,12.70
2019-04-29T21:16:16.836Z,12.70
2019-04-29T21:19:40.052Z,12.70
2019-04-29T21:23:06.402Z,12.50
2019-04-29T21:26:29.541Z,12.50
2019-04-29T21:29:53.993Z,12.50
2019-04-29T21:33:20.979Z,12.40
2019-04-29T21:37:01.680Z,12.40
2019-04-29T21:40:32.133Z,12.40
2019-04-29T21:43:56.093Z,12.40
2019-04-29T21:47:19.838Z,12.40
2019-04-29T21:50:44.802Z,12.40
2019-04-29T21:54:09.571Z,12.40
2019-04-29T21:57:35.321Z,12.40
2019-04-29T22:00:59.821Z,12.40
2019-04-29T22:04:23.140Z,12.40
2019-04-29T22:07:47.661Z,12.40
2019-04-29T22:11:10.921Z,12.40
2019-04-29T22:14:34.886Z,12.30
2019-04-29T22:18:01.286Z,12.30
2019-04-29T22:21:23.540Z,12.30
2019-04-29T22:24:46.967Z,12.30
2019-04-29T22:28:10.812Z,12.30
2019-04-29T22:31:38.181Z,12.30
2019-04-29T22:35:01.605Z,12.20
2019-04-29T22:38:25.110Z,12.20
2019-04-29T22:42:05.067Z,12.10
2019-04-29T22:45:29.613Z,12.10
2019-04-29T22:48:55.723Z,12.10
2019-04-29T22:52:20.050Z,12.10
2019-04-29T22:55:45.102Z,12.10
2019-04-29T22:59:08.355Z,12.00
2019-04-29T23:02:33.485Z,12.00
2019-04-29T23:06:00.132Z,12.00
2019-04-29T23:09:21.624Z,12.00
2019-04-29T23:12:45.172Z,12.00
2019-04-29T23:16:08.450Z,11.90
2019-04-29T23:19:31.930Z,11.90
2019-04-29T23:23:00.280Z,11.90
2019-04-29T23:26:24.964Z,11.90
2019-04-29T23:29:48.170Z,11.80
2019-04-29T23:33:11.335Z,11.70
2019-04-29T23:36:34.441Z,11.60
2019-04-29T23:39:57.607Z,11.50
2019-04-29T23:43:25.372Z,11.50
2019-04-29T23:46:47.460Z,11.50
2019-04-29T23:50:14.085Z,11.50
2019-04-29T23:53:36.022Z,11.60
2019-04-29T23:57:16.334Z,11.60
